OIZI  Iran Shahr Airport

Add Bookmark

Iran

Status
Operational
Latitude Longitude
27° 14' 9" N 60° 43' 12" E
27.236099 60.720001
Local (DST + 5) UTC (GMT + 4)
Feb 1, 2015 04:41 Feb 1, 2015 13:11
Sunrise-Sunset Local UTC
Begin Civil Twilight 05:47 02:17
Sunrise 06:11 02:41
Sunset 05:09 13:39
End Civil Twilight 05:33 14:03

Current Weather

METAR Observed IFR
OIZI 011200Z 28006KT 4000 HZ NSC 26/03 Q1013 Sun, Feb 1, 2015 @ 12:00 UTC
(1 Hour, 11 Minutes ago)
Instrument Flight Rules
Wind Visibility Clouds Conditions
280° at 6 knots (11 kph) 4000 meters
  • Clear skies
  • Haze
Temperatures Readings Precipitation
Current Temp 26°C (79°F)
Dewpoint 3°C (37°F)
Humidity 23%
Altimeter 29.91"Hg
Sea Level Pressure 1013mb
Field Elevation 1938.98'
None Recorded

24 Hour Weather History

Loading
-

24 Hour Weather Graphs

Loading
-

CheckWX.com is intended as a tool to help pilots better visualize weather data. It is not intended as a substitute for an official weather briefing obtained from a Flight Service Station. CheckWX.com does not meet the FAA requirements for an official pre-flight weather briefing. Therefore, it's important that pilots still call and obtain an official FSS pre-flight weather briefing.